Time;durP1;ratioP1;P1;durP2;ratioP2;P2;SDS_P1;SDS_P2;PMS_P1;PMS_P2;Temp;Humidity;BMP_temperature;BMP_pressure;BME280_temperature;BME280_humidity;BME280_pressure;Samples;Min_cycle;Max_cycle;Signal;HPM_P1;HPM_P2
2022/03/22 00:02:08;;;;;;;19.17;10.07;;;;;;;;;;6211204;28;20437;-78
2022/03/22 00:05:09;;;;;;;18.40;10.23;;;;;;;;;;6208093;28;20049;-78
2022/03/22 00:08:11;;;;;;;19.30;10.48;;;;;;;;;;6210785;28;20713;-79
2022/03/22 00:11:14;;;;;;;19.10;10.15;;;;;;;;;;6211349;28;20041;-78
2022/03/22 00:14:17;;;;;;;23.38;10.50;;;;;;;;;;6210381;28;20387;-79
2022/03/22 00:17:38;;;;;;;22.40;11.63;;;;;;;;;;6223600;28;20052;-78
2022/03/22 00:20:42;;;;;;;19.30;10.43;;;;;;;;;;6210259;28;20440;-77
2022/03/22 00:23:43;;;;;;;;;;;;;;;;;;6212561;28;20049;-79
2022/03/22 00:26:45;;;;;;;19.65;9.57;;;;;;;;;;6211306;28;20430;-78
2022/03/22 00:29:48;;;;;;;21.27;10.98;;;;;;;;;;6211267;28;20073;-78
2022/03/22 00:32:54;;;;;;;21.63;11.17;;;;;;;;;;6211074;28;20514;-79
2022/03/22 00:35:56;;;;;;;20.42;11.05;;;;;;;;;;6211203;28;20445;-78
2022/03/22 00:38:57;;;;;;;23.55;11.18;;;;;;;;;;6210667;28;20052;-77
2022/03/22 00:41:59;;;;;;;26.40;11.80;;;;;;;;;;6232762;28;20088;-79
2022/03/22 00:45:01;;;;;;;23.42;11.40;;;;;;;;;;6213310;28;20042;-76
2022/03/22 00:48:05;;;;;;;21.40;11.27;;;;;;;;;;6232744;28;20095;-78
2022/03/22 00:51:07;;;;;;;23.42;11.07;;;;;;;;;;6215740;28;20124;-79
2022/03/22 00:54:08;;;;;;;26.63;12.00;;;;;;;;;;6196435;28;20081;-79
2022/03/22 00:57:10;;;;;;;23.58;11.57;;;;;;;;;;6216984;28;20092;-76
2022/03/22 01:00:13;;;;;;;23.67;11.25;;;;;;;;;;6221200;28;20041;-79
2022/03/22 01:03:15;;;;;;;21.35;10.75;;;;;;;;;;6221496;28;20115;-78
2022/03/22 01:06:17;;;;;;;23.88;10.65;;;;;;;;;;6219412;28;20062;-77
2022/03/22 01:09:19;;;;;;;26.85;12.52;;;;;;;;;;6221324;28;20045;-78
2022/03/22 01:12:21;;;;;;;21.70;10.45;;;;;;;;;;6219028;28;20102;-76
2022/03/22 01:15:26;;;;;;;21.27;11.15;;;;;;;;;;6221533;28;20045;-79
2022/03/22 01:18:27;;;;;;;22.10;11.32;;;;;;;;;;6202959;28;20127;-79
2022/03/22 01:21:29;;;;;;;21.55;10.40;;;;;;;;;;6219329;28;20077;-79
2022/03/22 01:24:31;;;;;;;20.20;9.25;;;;;;;;;;6238470;28;20120;-79
2022/03/22 01:27:33;;;;;;;21.17;10.40;;;;;;;;;;6243981;28;20113;-78
2022/03/22 01:30:37;;;;;;;21.73;10.48;;;;;;;;;;6220339;28;20080;-81
2022/03/22 01:33:38;;;;;;;21.50;11.07;;;;;;;;;;6221399;28;20102;-78
2022/03/22 01:36:40;;;;;;;24.08;11.32;;;;;;;;;;6220766;28;20177;-79
2022/03/22 01:39:42;;;;;;;21.67;11.05;;;;;;;;;;6224502;28;20104;-79
2022/03/22 01:42:44;;;;;;;24.10;11.30;;;;;;;;;;6241468;28;20065;-78
2022/03/22 01:45:48;;;;;;;24.50;11.85;;;;;;;;;;6224354;28;20125;-78
2022/03/22 01:48:51;;;;;;;22.40;10.98;;;;;;;;;;6245653;28;20192;-77
2022/03/22 01:51:55;;;;;;;23.48;10.98;;;;;;;;;;6242520;28;20050;-79
2022/03/22 01:54:56;;;;;;;24.60;11.75;;;;;;;;;;6218253;28;20037;-78
2022/03/22 01:57:58;;;;;;;23.13;11.95;;;;;;;;;;6220418;28;20070;-80
2022/03/22 02:07:45;;;;;;;21.30;10.82;;;;;;;;;;6240427;28;20108;-79
2022/03/22 02:10:47;;;;;;;21.48;11.68;;;;;;;;;;6244782;28;20045;-77
2022/03/22 02:13:50;;;;;;;21.13;10.32;;;;;;;;;;6232400;28;20073;-79
2022/03/22 02:16:52;;;;;;;20.30;10.32;;;;;;;;;;6219714;28;20139;-78
2022/03/22 02:19:54;;;;;;;21.08;10.93;;;;;;;;;;6219550;28;20081;-77
2022/03/22 02:23:02;;;;;;;22.70;11.05;;;;;;;;;;6216463;28;20050;-77
2022/03/22 02:26:04;;;;;;;22.85;11.35;;;;;;;;;;6216729;28;20046;-79
2022/03/22 02:29:06;;;;;;;23.70;10.52;;;;;;;;;;6226879;28;20101;-80
2022/03/22 02:32:08;;;;;;;21.02;9.65;;;;;;;;;;6240170;28;20175;-80
2022/03/22 02:35:09;;;;;;;19.20;10.43;;;;;;;;;;6240709;28;20067;-80
2022/03/22 02:38:12;;;;;;;16.80;9.93;;;;;;;;;;6231754;28;20133;-79
2022/03/22 02:41:23;;;;;;;20.50;10.80;;;;;;;;;;6239051;28;20580;-79
2022/03/22 02:44:25;;;;;;;18.95;9.52;;;;;;;;;;6213876;28;20412;-76
2022/03/22 02:47:26;;;;;;;20.92;9.82;;;;;;;;;;6227726;28;20104;-78
2022/03/22 02:50:28;;;;;;;21.75;10.18;;;;;;;;;;6245794;28;20114;-77
2022/03/22 02:53:30;;;;;;;22.92;10.00;;;;;;;;;;6242526;28;20049;-79
2022/03/22 02:56:32;;;;;;;21.27;9.77;;;;;;;;;;6239447;28;20113;-78
2022/03/22 02:59:34;;;;;;;20.40;10.20;;;;;;;;;;6218196;28;20041;-78
2022/03/22 03:02:43;;;;;;;21.00;9.70;;;;;;;;;;6216585;28;20105;-78
2022/03/22 03:05:47;;;;;;;20.13;10.05;;;;;;;;;;6233651;28;20491;-78
2022/03/22 03:08:50;;;;;;;21.02;10.00;;;;;;;;;;6241755;28;20539;-78
2022/03/22 03:11:51;;;;;;;17.98;8.85;;;;;;;;;;6237600;28;20058;-79
2022/03/22 03:14:53;;;;;;;19.58;9.55;;;;;;;;;;6230799;28;20137;-79
2022/03/22 03:17:55;;;;;;;19.75;9.98;;;;;;;;;;6215642;28;20136;-77
2022/03/22 03:20:56;;;;;;;20.73;9.60;;;;;;;;;;6215905;28;20069;-79
2022/03/22 03:23:58;;;;;;;19.60;9.40;;;;;;;;;;6217121;28;20100;-78
2022/03/22 03:27:00;;;;;;;24.17;9.95;;;;;;;;;;6216591;28;20060;-79
2022/03/22 03:30:06;;;;;;;19.98;9.65;;;;;;;;;;6216078;28;20524;-78
2022/03/22 03:33:08;;;;;;;20.05;9.90;;;;;;;;;;6220336;28;20045;-80
2022/03/22 03:36:10;;;;;;;21.40;9.95;;;;;;;;;;6216291;28;20041;-77
2022/03/22 03:39:12;;;;;;;19.65;10.57;;;;;;;;;;6217589;28;20048;-80
2022/03/22 03:42:14;;;;;;;21.52;10.77;;;;;;;;;;6240526;28;20395;-80
2022/03/22 03:48:35;;;;;;;19.92;10.30;;;;;;;;;;6221180;28;20131;-80
2022/03/22 03:51:38;;;;;;;19.85;9.88;;;;;;;;;;6213664;28;20057;-80
2022/03/22 03:54:40;;;;;;;21.95;10.38;;;;;;;;;;6192658;28;20074;-77
2022/03/22 03:57:43;;;;;;;21.50;10.70;;;;;;;;;;6192012;28;20050;-80
2022/03/22 04:00:45;;;;;;;21.88;10.63;;;;;;;;;;6191743;28;20121;-78
2022/03/22 04:03:47;;;;;;;23.33;10.30;;;;;;;;;;6216616;28;20041;-79
2022/03/22 04:06:50;;;;;;;24.80;10.90;;;;;;;;;;6216641;28;20054;-80
2022/03/22 04:09:56;;;;;;;19.70;10.63;;;;;;;;;;6218673;28;20645;-78
2022/03/22 04:12:58;;;;;;;23.73;10.85;;;;;;;;;;6232465;28;20056;-79
2022/03/22 04:16:00;;;;;;;23.55;10.38;;;;;;;;;;6215368;28;20046;-79
2022/03/22 04:19:03;;;;;;;22.40;10.20;;;;;;;;;;6210979;28;20045;-80
2022/03/22 04:22:08;;;;;;;20.67;9.70;;;;;;;;;;6231193;28;20056;-79
2022/03/22 04:25:10;;;;;;;22.52;10.38;;;;;;;;;;6238045;28;20413;-79
2022/03/22 04:34:52;;;;;;;22.33;10.43;;;;;;;;;;6239282;28;20052;-79
2022/03/22 04:37:55;;;;;;;22.80;11.68;;;;;;;;;;6224573;28;20528;-77
2022/03/22 04:40:57;;;;;;;21.80;10.40;;;;;;;;;;6227832;28;20076;-78
2022/03/22 04:43:59;;;;;;;23.20;9.98;;;;;;;;;;6228633;28;20037;-79
2022/03/22 04:47:02;;;;;;;23.52;10.18;;;;;;;;;;6228796;28;20107;-79
2022/03/22 04:50:05;;;;;;;24.10;10.45;;;;;;;;;;6239021;28;20184;-77
2022/03/22 04:59:48;;;;;;;19.67;10.02;;;;;;;;;;6224437;28;20068;-77
2022/03/22 05:02:49;;;;;;;21.10;9.60;;;;;;;;;;6214812;28;20515;-78
2022/03/22 05:09:12;;;;;;;21.23;10.38;;;;;;;;;;6216261;28;20129;-78
2022/03/22 05:12:13;;;;;;;24.42;10.57;;;;;;;;;;6202187;28;20117;-76
2022/03/22 05:15:15;;;;;;;26.75;10.95;;;;;;;;;;6217026;28;20406;-80
2022/03/22 05:18:17;;;;;;;22.63;11.75;;;;;;;;;;6216047;28;20131;-79
2022/03/22 05:21:19;;;;;;;26.35;11.48;;;;;;;;;;6215037;28;20125;-78
2022/03/22 05:24:21;;;;;;;25.60;11.47;;;;;;;;;;6216314;28;20120;-80
2022/03/22 05:27:22;;;;;;;23.65;10.07;;;;;;;;;;6215259;28;20050;-77
2022/03/22 05:30:25;;;;;;;25.33;11.43;;;;;;;;;;6235827;28;20052;-79
2022/03/22 05:33:27;;;;;;;24.48;11.35;;;;;;;;;;6236475;28;20444;-77
2022/03/22 05:36:28;;;;;;;26.02;11.20;;;;;;;;;;6236927;28;20574;-78
2022/03/22 05:39:30;;;;;;;25.83;11.90;;;;;;;;;;6218001;28;20056;-78
2022/03/22 05:42:36;;;;;;;26.42;12.18;;;;;;;;;;6216484;28;20049;-77
2022/03/22 05:45:39;;;;;;;27.95;11.50;;;;;;;;;;6217887;28;20081;-78
2022/03/22 05:48:41;;;;;;;24.10;10.77;;;;;;;;;;6216918;28;20041;-78
2022/03/22 05:51:43;;;;;;;25.08;11.60;;;;;;;;;;6239161;28;20544;-77
2022/03/22 05:54:44;;;;;;;22.55;10.30;;;;;;;;;;6217232;28;20073;-78
2022/03/22 05:57:46;;;;;;;24.75;11.25;;;;;;;;;;6216351;28;20133;-76
2022/03/22 06:00:48;;;;;;;28.55;11.85;;;;;;;;;;6214786;28;20156;-78
2022/03/22 06:03:50;;;;;;;21.30;10.73;;;;;;;;;;6216115;28;20054;-79
2022/03/22 06:06:52;;;;;;;24.33;10.70;;;;;;;;;;6216286;28;20046;-78
2022/03/22 06:09:54;;;;;;;22.38;11.65;;;;;;;;;;6214305;28;20050;-77
2022/03/22 06:12:57;;;;;;;27.33;12.30;;;;;;;;;;6229984;28;20448;-78
2022/03/22 06:15:58;;;;;;;24.88;12.40;;;;;;;;;;6217069;28;20048;-79
2022/03/22 06:19:00;;;;;;;23.17;11.20;;;;;;;;;;6217929;28;20049;-78
2022/03/22 06:22:02;;;;;;;24.75;11.65;;;;;;;;;;6216500;28;20396;-78
2022/03/22 06:25:04;;;;;;;30.23;14.18;;;;;;;;;;6216945;28;20089;-79
2022/03/22 06:28:07;;;;;;;29.77;14.80;;;;;;;;;;6217113;28;20069;-78
2022/03/22 06:31:09;;;;;;;26.08;13.15;;;;;;;;;;6218767;28;20042;-78
2022/03/22 06:34:10;;;;;;;29.35;13.15;;;;;;;;;;6215517;28;20100;-79
2022/03/22 06:37:12;;;;;;;29.25;13.10;;;;;;;;;;6199352;28;20130;-79
2022/03/22 06:40:16;;;;;;;25.73;12.68;;;;;;;;;;6214656;28;20057;-77
2022/03/22 06:43:19;;;;;;;27.08;13.35;;;;;;;;;;6214568;28;20046;-78
2022/03/22 06:46:22;;;;;;;28.58;14.10;;;;;;;;;;6223797;28;20042;-77
2022/03/22 06:49:24;;;;;;;;;;;;;;;;;;6240925;28;20045;-78
2022/03/22 06:52:27;;;;;;;26.40;12.60;;;;;;;;;;6224326;28;20456;-78
2022/03/22 06:55:29;;;;;;;24.07;12.33;;;;;;;;;;6216229;28;20068;-76
2022/03/22 06:58:31;;;;;;;25.40;12.77;;;;;;;;;;6216236;28;20049;-78
2022/03/22 07:01:34;;;;;;;24.97;12.67;;;;;;;;;;6213839;28;20045;-79
2022/03/22 07:04:36;;;;;;;27.08;12.75;;;;;;;;;;6215818;28;20432;-76
2022/03/22 07:07:39;;;;;;;29.15;12.60;;;;;;;;;;6214519;28;20080;-78
2022/03/22 07:10:41;;;;;;;25.48;11.63;;;;;;;;;;6214786;28;20049;-78
2022/03/22 07:13:43;;;;;;;26.90;12.02;;;;;;;;;;6227096;28;20038;-77
2022/03/22 07:16:47;;;;;;;26.42;13.07;;;;;;;;;;6215592;28;20135;-77
2022/03/22 07:19:51;;;;;;;26.50;13.52;;;;;;;;;;6214453;28;20056;-77
2022/03/22 07:22:52;;;;;;;30.45;14.18;;;;;;;;;;6215572;28;20158;-79
2022/03/22 07:25:54;;;;;;;26.30;13.32;;;;;;;;;;6212621;28;20125;-78
2022/03/22 07:28:56;;;;;;;28.63;13.95;;;;;;;;;;6215208;28;20097;-78
2022/03/22 07:31:59;;;;;;;23.95;12.98;;;;;;;;;;6213605;28;20132;-78
2022/03/22 07:35:00;;;;;;;26.50;13.13;;;;;;;;;;6216499;28;20053;-78
2022/03/22 07:38:02;;;;;;;26.17;13.07;;;;;;;;;;6216198;28;20041;-77
2022/03/22 07:41:04;;;;;;;30.67;14.63;;;;;;;;;;6216779;28;20046;-80
2022/03/22 07:44:08;;;;;;;26.20;13.05;;;;;;;;;;6215707;28;20834;-80
2022/03/22 07:47:11;;;;;;;24.95;13.20;;;;;;;;;;6219130;28;20141;-80
2022/03/22 07:53:33;;;;;;;25.98;13.15;;;;;;;;;;6227160;28;20053;-77
2022/03/22 07:56:35;;;;;;;28.98;12.77;;;;;;;;;;6216375;28;20403;-79
2022/03/22 07:59:36;;;;;;;24.65;12.85;;;;;;;;;;6219096;28;20518;-78
2022/03/22 08:02:38;;;;;;;20.55;12.20;;;;;;;;;;6211467;28;20073;-81
2022/03/22 08:05:40;;;;;;;30.60;13.55;;;;;;;;;;6213008;28;20064;-78
2022/03/22 08:08:44;;;;;;;30.95;12.85;;;;;;;;;;6220895;28;20077;-79
2022/03/22 08:11:45;;;;;;;27.23;12.75;;;;;;;;;;6213678;28;20554;-80
2022/03/22 08:14:47;;;;;;;25.55;13.30;;;;;;;;;;6214121;28;20054;-78
2022/03/22 08:17:49;;;;;;;25.88;12.80;;;;;;;;;;6214335;28;20046;-79
2022/03/22 08:20:51;;;;;;;24.10;11.88;;;;;;;;;;6216033;28;20084;-81
2022/03/22 08:23:54;;;;;;;;;;;;;;;;;;6219524;28;20046;-80
2022/03/22 08:26:55;;;;;;;27.23;11.57;;;;;;;;;;6215187;28;19922;-80
2022/03/22 08:29:57;;;;;;;24.05;11.52;;;;;;;;;;6215449;28;20041;-80
2022/03/22 08:33:03;;;;;;;23.83;11.88;;;;;;;;;;6234925;28;20068;-80
2022/03/22 08:36:05;;;;;;;21.15;11.25;;;;;;;;;;6207410;28;20063;-79
2022/03/22 08:39:07;;;;;;;21.63;12.15;;;;;;;;;;6227833;28;20056;-81
2022/03/22 08:42:08;;;;;;;20.75;12.55;;;;;;;;;;6216000;28;20054;-79
2022/03/22 08:45:18;;;;;;;22.30;12.23;;;;;;;;;;6214360;28;20196;-80
2022/03/22 08:48:20;;;;;;;25.55;14.25;;;;;;;;;;6201974;28;20120;-82
2022/03/22 08:51:25;;;;;;;24.08;13.30;;;;;;;;;;6223318;28;20136;-79
2022/03/22 08:54:27;;;;;;;18.23;11.48;;;;;;;;;;6220963;28;20046;-79
2022/03/22 08:57:29;;;;;;;22.90;11.68;;;;;;;;;;6216481;28;20115;-80
2022/03/22 09:00:32;;;;;;;16.10;10.80;;;;;;;;;;6217429;28;20054;-81
2022/03/22 09:03:35;;;;;;;17.55;10.45;;;;;;;;;;6217440;28;20038;-80
2022/03/22 09:06:40;;;;;;;22.15;11.88;;;;;;;;;;6214243;28;20052;-81
2022/03/22 09:09:43;;;;;;;19.20;11.38;;;;;;;;;;6216445;28;20046;-80
2022/03/22 09:12:44;;;;;;;17.23;10.90;;;;;;;;;;6226844;28;20761;-80
2022/03/22 09:15:48;;;;;;;18.20;9.95;;;;;;;;;;6221052;28;20180;-79
2022/03/22 09:18:50;;;;;;;14.57;9.88;;;;;;;;;;6219595;28;20111;-79
2022/03/22 09:21:52;;;;;;;17.92;10.77;;;;;;;;;;6217932;28;20159;-81
2022/03/22 09:24:54;;;;;;;16.92;9.98;;;;;;;;;;6221888;28;20134;-81
2022/03/22 09:27:56;;;;;;;15.80;9.60;;;;;;;;;;6220750;28;20499;-81
2022/03/22 09:30:59;;;;;;;15.73;9.05;;;;;;;;;;6251635;28;20126;-80
2022/03/22 09:34:02;;;;;;;16.90;9.70;;;;;;;;;;6220303;28;20507;-80
2022/03/22 09:37:06;;;;;;;16.77;9.00;;;;;;;;;;6227993;28;20055;-81
2022/03/22 09:40:10;;;;;;;15.70;9.43;;;;;;;;;;6243465;28;20143;-80
2022/03/22 09:43:12;;;;;;;14.63;8.93;;;;;;;;;;6250048;28;20049;-79
2022/03/22 09:46:22;;;;;;;16.50;9.95;;;;;;;;;;6206153;28;20038;-80
2022/03/22 09:49:24;;;;;;;14.63;10.13;;;;;;;;;;6219739;28;20096;-81
2022/03/22 09:52:26;;;;;;;16.35;9.93;;;;;;;;;;6220315;28;20183;-80
2022/03/22 09:55:28;;;;;;;14.68;10.23;;;;;;;;;;6249679;28;20124;-80
2022/03/22 09:58:31;;;;;;;14.23;10.38;;;;;;;;;;6235659;28;20053;-81
2022/03/22 10:01:33;;;;;;;15.10;10.10;;;;;;;;;;6216140;28;20069;-80
2022/03/22 10:04:37;;;;;;;14.98;10.60;;;;;;;;;;6218285;28;20543;-80
2022/03/22 10:07:39;;;;;;;16.13;10.73;;;;;;;;;;6262093;28;20116;-80
2022/03/22 10:11:03;;;;;;;14.27;10.50;;;;;;;;;;6226995;28;20119;-80
2022/03/22 10:14:08;;;;;;;14.93;10.07;;;;;;;;;;6236869;28;20096;-81
2022/03/22 10:17:19;;;;;;;15.57;10.73;;;;;;;;;;6248348;28;20109;-80
2022/03/22 10:20:23;;;;;;;15.52;10.43;;;;;;;;;;6247107;28;20068;-82
2022/03/22 10:23:25;;;;;;;15.02;10.85;;;;;;;;;;6245168;28;20120;-81
2022/03/22 10:26:34;;;;;;;16.17;10.25;;;;;;;;;;6243919;28;20045;-82
2022/03/22 10:29:41;;;;;;;14.18;10.02;;;;;;;;;;6243666;28;20072;-81
2022/03/22 10:32:52;;;;;;;12.63;9.60;;;;;;;;;;6222961;28;20034;-82
2022/03/22 10:35:54;;;;;;;15.88;10.10;;;;;;;;;;6221813;28;20062;-82
2022/03/22 10:38:59;;;;;;;16.42;10.20;;;;;;;;;;6222584;28;20114;-81
2022/03/22 10:42:07;;;;;;;14.80;9.85;;;;;;;;;;6231956;28;20077;-80
2022/03/22 10:45:09;;;;;;;14.82;9.73;;;;;;;;;;6221414;28;20061;-81
2022/03/22 10:48:19;;;;;;;15.73;10.77;;;;;;;;;;6237251;28;20092;-79
2022/03/22 10:51:21;;;;;;;15.68;10.07;;;;;;;;;;6230039;28;20103;-81
2022/03/22 10:54:23;;;;;;;15.43;10.25;;;;;;;;;;6234229;28;20522;-81
2022/03/22 10:57:32;;;;;;;18.63;10.95;;;;;;;;;;6231739;28;20092;-79
2022/03/22 11:00:36;;;;;;;14.35;10.30;;;;;;;;;;6232903;28;20076;-82
2022/03/22 11:03:39;;;;;;;13.48;9.88;;;;;;;;;;6219624;28;20144;-80
2022/03/22 11:06:42;;;;;;;16.13;10.35;;;;;;;;;;6221067;28;20046;-80
2022/03/22 11:09:44;;;;;;;15.13;10.60;;;;;;;;;;6234535;28;20058;-78
2022/03/22 11:12:46;;;;;;;15.68;10.70;;;;;;;;;;6263441;28;20630;-81
2022/03/22 11:15:49;;;;;;;14.63;9.88;;;;;;;;;;6220093;28;20065;-80
2022/03/22 11:18:59;;;;;;;16.88;10.38;;;;;;;;;;6232839;28;20064;-80
2022/03/22 11:22:08;;;;;;;14.32;10.60;;;;;;;;;;6231568;28;20037;-81
2022/03/22 11:25:12;;;;;;;20.25;10.60;;;;;;;;;;6243841;28;20055;-79
2022/03/22 11:28:18;;;;;;;15.25;9.90;;;;;;;;;;6241997;28;20200;-79
2022/03/22 11:31:26;;;;;;;14.93;10.10;;;;;;;;;;6240443;28;20037;-78
2022/03/22 11:34:27;;;;;;;16.83;10.80;;;;;;;;;;6237725;28;20050;-77
2022/03/22 11:37:31;;;;;;;15.82;10.30;;;;;;;;;;6230766;28;20055;-80
2022/03/22 11:44:01;;;;;;;16.38;10.63;;;;;;;;;;6233975;28;20521;-79
2022/03/22 11:47:07;;;;;;;14.57;10.07;;;;;;;;;;6222748;28;20181;-77
2022/03/22 11:50:13;;;;;;;13.60;9.50;;;;;;;;;;6225020;28;20041;-80
2022/03/22 11:53:17;;;;;;;16.33;10.40;;;;;;;;;;6217482;28;20050;-79
2022/03/22 11:56:26;;;;;;;14.73;10.30;;;;;;;;;;6207765;28;20053;-79
2022/03/22 11:59:28;;;;;;;15.25;10.05;;;;;;;;;;6220164;28;20499;-79
2022/03/22 12:02:34;;;;;;;15.43;10.45;;;;;;;;;;6230317;28;20187;-80
2022/03/22 12:05:36;;;;;;;15.60;10.35;;;;;;;;;;6223119;28;20053;-79
2022/03/22 12:08:38;;;;;;;15.82;11.15;;;;;;;;;;6220424;28;20288;-78
2022/03/22 12:11:49;;;;;;;15.23;10.60;;;;;;;;;;6223250;28;20519;-81
2022/03/22 12:14:51;;;;;;;14.48;10.57;;;;;;;;;;6217252;28;20077;-81
2022/03/22 12:17:53;;;;;;;14.27;10.47;;;;;;;;;;6214691;28;20049;-80
2022/03/22 12:20:56;;;;;;;13.85;11.07;;;;;;;;;;6199565;28;20531;-80
2022/03/22 12:23:58;;;;;;;16.10;10.82;;;;;;;;;;6218389;28;20654;-80
2022/03/22 12:27:05;;;;;;;15.60;10.77;;;;;;;;;;6217781;28;20046;-77
2022/03/22 12:30:08;;;;;;;15.52;10.77;;;;;;;;;;6219273;28;20088;-82
2022/03/22 12:33:14;;;;;;;13.77;10.02;;;;;;;;;;6217121;28;20180;-81
2022/03/22 12:36:19;;;;;;;14.70;10.57;;;;;;;;;;6217867;28;20049;-79
2022/03/22 12:39:20;;;;;;;17.23;10.70;;;;;;;;;;6217607;28;20590;-78
2022/03/22 12:42:22;;;;;;;17.88;10.98;;;;;;;;;;6214373;28;20121;-80
2022/03/22 12:45:26;;;;;;;13.70;9.57;;;;;;;;;;6238316;28;20180;-79
2022/03/22 12:48:28;;;;;;;12.60;8.65;;;;;;;;;;6219040;28;20113;-81
2022/03/22 12:51:31;;;;;;;11.05;8.43;;;;;;;;;;6220763;28;20037;-78
2022/03/22 12:54:34;;;;;;;;;;;;;;;;;;6235529;28;20073;-79
2022/03/22 12:57:37;;;;;;;13.38;9.02;;;;;;;;;;6195647;28;19932;-77
2022/03/22 13:00:40;;;;;;;14.88;9.27;;;;;;;;;;6216997;28;20177;-78
2022/03/22 13:03:45;;;;;;;14.13;8.60;;;;;;;;;;6216173;28;20049;-78
2022/03/22 13:06:47;;;;;;;15.32;9.25;;;;;;;;;;6250701;28;20053;-77
2022/03/22 13:13:17;;;;;;;13.63;8.63;;;;;;;;;;6218791;28;20076;-80
2022/03/22 13:16:21;;;;;;;16.50;10.75;;;;;;;;;;6225246;28;20388;-78
2022/03/22 13:19:30;;;;;;;16.25;11.35;;;;;;;;;;6241477;28;20033;-80
2022/03/22 13:22:34;;;;;;;15.30;10.25;;;;;;;;;;6225684;28;20088;-80
2022/03/22 13:25:38;;;;;;;14.35;8.82;;;;;;;;;;6225230;28;20085;-80
2022/03/22 13:28:40;;;;;;;19.67;9.50;;;;;;;;;;6224511;28;20129;-78
2022/03/22 13:31:59;;;;;;;11.90;9.03;;;;;;;;;;6221613;28;20123;-77
2022/03/22 13:35:04;;;;;;;12.45;9.52;;;;;;;;;;6227486;28;20461;-80
2022/03/22 13:38:07;;;;;;;12.05;9.30;;;;;;;;;;6228046;28;20046;-80
2022/03/22 13:41:09;;;;;;;14.68;9.27;;;;;;;;;;6224102;28;20097;-79
2022/03/22 13:44:11;;;;;;;11.75;8.77;;;;;;;;;;6259102;28;20037;-79
2022/03/22 13:47:33;;;;;;;14.40;8.65;;;;;;;;;;6223940;28;20184;-77
2022/03/22 13:50:36;;;;;;;12.18;8.68;;;;;;;;;;6227747;28;20058;-78
2022/03/22 13:53:37;;;;;;;12.90;8.55;;;;;;;;;;6229533;28;20061;-78
2022/03/22 13:56:39;;;;;;;12.20;9.13;;;;;;;;;;6228093;28;20129;-78
2022/03/22 13:59:41;;;;;;;11.75;8.50;;;;;;;;;;6228014;28;20065;-80
2022/03/22 14:02:48;;;;;;;13.52;8.65;;;;;;;;;;6227936;28;20120;-81
2022/03/22 14:05:50;;;;;;;;;;;;;;;;;;6224842;28;20396;-79
2022/03/22 14:08:51;;;;;;;14.73;8.35;;;;;;;;;;6227122;28;19921;-79
2022/03/22 14:11:53;;;;;;;12.25;8.40;;;;;;;;;;6235352;28;20081;-80
2022/03/22 14:14:56;;;;;;;10.90;7.68;;;;;;;;;;6248257;28;20316;-77
2022/03/22 14:18:01;;;;;;;12.07;7.57;;;;;;;;;;6249482;28;20127;-80
2022/03/22 14:21:02;;;;;;;11.75;8.18;;;;;;;;;;6249344;28;20041;-78
2022/03/22 14:24:04;;;;;;;10.20;7.05;;;;;;;;;;6220346;28;20109;-78
2022/03/22 14:27:06;;;;;;;8.73;6.80;;;;;;;;;;6223469;28;20070;-77
2022/03/22 14:30:17;;;;;;;11.63;7.25;;;;;;;;;;6218502;28;20068;-79
2022/03/22 14:33:19;;;;;;;11.40;7.25;;;;;;;;;;6220871;28;20125;-77
2022/03/22 14:36:22;;;;;;;10.63;7.38;;;;;;;;;;6219592;28;20053;-81
2022/03/22 14:39:23;;;;;;;9.02;7.07;;;;;;;;;;6218607;28;20119;-78
2022/03/22 14:42:25;;;;;;;8.93;6.53;;;;;;;;;;6216745;28;20128;-78
2022/03/22 14:45:27;;;;;;;10.50;7.25;;;;;;;;;;6196095;28;20508;-79
2022/03/22 14:48:29;;;;;;;9.00;6.47;;;;;;;;;;6241851;28;20037;-81
2022/03/22 14:54:51;;;;;;;9.45;6.40;;;;;;;;;;6218645;28;20045;-80
2022/03/22 15:01:16;;;;;;;9.90;6.28;;;;;;;;;;6245736;28;20149;-80
2022/03/22 15:04:19;;;;;;;10.85;6.65;;;;;;;;;;6242004;28;20049;-81
2022/03/22 15:07:22;;;;;;;8.00;6.65;;;;;;;;;;6241547;28;20053;-81
2022/03/22 15:10:23;;;;;;;10.00;6.80;;;;;;;;;;6215842;28;20439;-80
2022/03/22 15:13:25;;;;;;;10.07;6.30;;;;;;;;;;6228799;28;20108;-81
2022/03/22 15:16:29;;;;;;;8.90;7.25;;;;;;;;;;6220353;28;20104;-78
2022/03/22 15:19:31;;;;;;;8.10;5.85;;;;;;;;;;6214574;28;20408;-78
2022/03/22 15:22:33;;;;;;;7.32;6.28;;;;;;;;;;6214352;28;20146;-79
2022/03/22 15:25:35;;;;;;;7.47;5.85;;;;;;;;;;6216668;28;20076;-79
2022/03/22 15:28:38;;;;;;;9.23;6.50;;;;;;;;;;6218110;28;20067;-79
2022/03/22 15:31:40;;;;;;;8.23;6.15;;;;;;;;;;6216926;28;20057;-79
2022/03/22 15:34:41;;;;;;;9.27;5.73;;;;;;;;;;6216751;28;20050;-79
2022/03/22 15:37:44;;;;;;;9.30;6.22;;;;;;;;;;6217467;28;20463;-80
2022/03/22 15:40:46;;;;;;;7.15;5.55;;;;;;;;;;6198553;28;20406;-80
2022/03/22 15:43:47;;;;;;;8.57;5.45;;;;;;;;;;6258953;28;20106;-81
2022/03/22 15:46:49;;;;;;;7.88;5.13;;;;;;;;;;6240976;28;20049;-80
2022/03/22 15:49:50;;;;;;;7.75;5.40;;;;;;;;;;6213925;28;20058;-78
2022/03/22 15:52:52;;;;;;;9.63;5.72;;;;;;;;;;6208464;28;20533;-77
2022/03/22 15:55:54;;;;;;;7.13;5.75;;;;;;;;;;6190351;28;20193;-83
2022/03/22 15:58:55;;;;;;;8.65;5.60;;;;;;;;;;6218950;28;20077;-84
2022/03/22 16:01:57;;;;;;;6.75;5.25;;;;;;;;;;6216994;28;20399;-79
2022/03/22 16:04:59;;;;;;;8.82;6.22;;;;;;;;;;6198636;28;20117;-78
2022/03/22 16:08:02;;;;;;;8.27;5.68;;;;;;;;;;6222195;28;20503;-79
2022/03/22 16:11:03;;;;;;;9.90;5.78;;;;;;;;;;6221502;28;20052;-78
2022/03/22 16:14:05;;;;;;;7.63;5.20;;;;;;;;;;6229527;28;20640;-79
2022/03/22 16:17:07;;;;;;;10.80;6.18;;;;;;;;;;6214950;28;20045;-80
2022/03/22 16:20:10;;;;;;;9.45;5.97;;;;;;;;;;6221577;28;20058;-79
2022/03/22 16:23:11;;;;;;;;;;;;;;;;;;6210945;28;20520;-81
2022/03/22 16:26:14;;;;;;;9.18;5.75;;;;;;;;;;6226569;28;19921;-80
2022/03/22 16:29:16;;;;;;;7.00;5.78;;;;;;;;;;6221962;28;20127;-80
2022/03/22 16:32:17;;;;;;;8.97;6.03;;;;;;;;;;6209593;28;20053;-80
2022/03/22 16:42:02;;;;;;;10.82;5.97;;;;;;;;;;6208408;28;20058;-79
2022/03/22 16:45:04;;;;;;;10.52;5.82;;;;;;;;;;6231034;28;20097;-77
2022/03/22 16:48:12;;;;;;;7.87;5.77;;;;;;;;;;6264588;28;20048;-78
2022/03/22 16:51:14;;;;;;;9.73;6.40;;;;;;;;;;6258096;28;20163;-78
2022/03/22 16:54:16;;;;;;;7.93;5.32;;;;;;;;;;6218772;28;20048;-78
2022/03/22 16:57:18;;;;;;;6.75;5.10;;;;;;;;;;6213347;28;20179;-78
2022/03/22 17:00:19;;;;;;;9.37;5.70;;;;;;;;;;6225350;28;20038;-77
2022/03/22 17:03:21;;;;;;;9.45;5.43;;;;;;;;;;6211942;28;20052;-77
2022/03/22 17:06:26;;;;;;;9.45;5.38;;;;;;;;;;6219176;28;20080;-78
2022/03/22 17:09:27;;;;;;;8.05;5.20;;;;;;;;;;6228804;28;20534;-79
2022/03/22 17:12:29;;;;;;;10.18;5.45;;;;;;;;;;6217955;28;20598;-77
2022/03/22 17:15:31;;;;;;;10.77;5.28;;;;;;;;;;6237065;28;20119;-77
2022/03/22 17:18:38;;;;;;;9.07;5.38;;;;;;;;;;6222588;28;20049;-78
2022/03/22 17:21:40;;;;;;;8.93;5.30;;;;;;;;;;6235004;28;20038;-79
2022/03/22 17:24:41;;;;;;;9.80;5.07;;;;;;;;;;6216854;28;20191;-78
2022/03/22 17:27:43;;;;;;;8.27;5.35;;;;;;;;;;6237760;28;20388;-80
2022/03/22 17:30:45;;;;;;;9.82;5.15;;;;;;;;;;6215225;28;20557;-79
2022/03/22 17:33:52;;;;;;;8.23;5.30;;;;;;;;;;6215100;28;20049;-80
2022/03/22 17:36:53;;;;;;;8.63;4.90;;;;;;;;;;6219176;28;20046;-80
2022/03/22 17:39:59;;;;;;;8.80;5.43;;;;;;;;;;6219337;28;20487;-80
2022/03/22 17:43:02;;;;;;;9.38;6.15;;;;;;;;;;6221208;28;20049;-80
2022/03/22 17:46:04;;;;;;;10.20;6.50;;;;;;;;;;6241277;28;20084;-79
2022/03/22 17:49:05;;;;;;;8.32;5.93;;;;;;;;;;6217716;28;20046;-80
2022/03/22 17:52:07;;;;;;;9.40;5.72;;;;;;;;;;6237326;28;20128;-80
2022/03/22 17:55:09;;;;;;;10.52;7.57;;;;;;;;;;6242277;28;20056;-81
2022/03/22 17:58:10;;;;;;;15.68;8.80;;;;;;;;;;6211022;28;20046;-80
2022/03/22 18:01:12;;;;;;;19.52;10.02;;;;;;;;;;6216269;28;20137;-82
2022/03/22 18:04:14;;;;;;;17.13;10.32;;;;;;;;;;6215715;28;20447;-81
2022/03/22 18:07:16;;;;;;;20.42;12.90;;;;;;;;;;6216853;28;20056;-80
2022/03/22 18:10:18;;;;;;;16.45;12.73;;;;;;;;;;6238137;28;20092;-80
2022/03/22 18:13:20;;;;;;;10.88;8.43;;;;;;;;;;6233368;28;20042;-81
2022/03/22 18:16:21;;;;;;;12.50;6.93;;;;;;;;;;6216468;28;20085;-80
2022/03/22 18:19:41;;;;;;;10.63;7.30;;;;;;;;;;6218879;28;20049;-80
2022/03/22 18:22:43;;;;;;;13.13;9.10;;;;;;;;;;6217506;28;20430;-79
2022/03/22 18:25:44;;;;;;;16.98;8.25;;;;;;;;;;6218651;28;20092;-81
2022/03/22 18:28:47;;;;;;;11.90;7.45;;;;;;;;;;6220077;28;20053;-80
2022/03/22 18:31:49;;;;;;;13.93;7.68;;;;;;;;;;6226310;28;20058;-79
2022/03/22 18:34:50;;;;;;;20.38;11.27;;;;;;;;;;6224080;28;20052;-79
2022/03/22 18:37:53;;;;;;;17.63;8.82;;;;;;;;;;6225484;28;20050;-81
2022/03/22 18:40:56;;;;;;;9.90;6.63;;;;;;;;;;6217903;28;20053;-78
2022/03/22 18:44:10;;;;;;;10.07;5.65;;;;;;;;;;6229284;28;20045;-80
2022/03/22 18:47:12;;;;;;;8.65;5.40;;;;;;;;;;6227535;28;20045;-80